createdAt,value
2022-11-29T00:01:37.061Z,29.03
2022-11-29T00:03:41.516Z,33.10
2022-11-29T00:05:44.487Z,24.60
2022-11-29T00:07:47.680Z,27.03
2022-11-29T00:09:50.723Z,29.83
2022-11-29T00:12:10.978Z,32.47
2022-11-29T00:14:16.213Z,23.90
2022-11-29T00:16:19.333Z,33.07
2022-11-29T00:18:22.519Z,29.93
2022-11-29T00:20:26.773Z,31.70
2022-11-29T00:22:30.294Z,30.50
2022-11-29T00:24:33.791Z,26.33
2022-11-29T00:26:37.063Z,32.53
2022-11-29T00:28:40.047Z,33.00
2022-11-29T00:30:42.977Z,25.77
2022-11-29T00:32:46.208Z,26.47
2022-11-29T00:34:49.838Z,29.90
2022-11-29T00:36:54.061Z,33.40
2022-11-29T00:38:57.192Z,33.53
2022-11-29T00:41:00.112Z,33.60
2022-11-29T00:43:03.236Z,32.53
2022-11-29T00:45:07.101Z,32.17
2022-11-29T00:47:10.320Z,26.60
2022-11-29T00:49:13.272Z,32.90
2022-11-29T00:51:16.527Z,28.83
2022-11-29T00:53:20.972Z,35.97
2022-11-29T00:55:24.228Z,39.30
2022-11-29T00:57:27.072Z,27.83
2022-11-29T00:59:30.571Z,35.20
2022-11-29T01:01:33.561Z,28.87
2022-11-29T01:03:37.542Z,29.43
2022-11-29T01:05:41.388Z,27.00
2022-11-29T01:07:44.864Z,30.90
2022-11-29T01:09:49.218Z,28.50
2022-11-29T01:11:52.138Z,34.30
2022-11-29T01:13:56.736Z,31.27
2022-11-29T01:15:59.840Z,36.53
2022-11-29T01:18:03.766Z,27.33
2022-11-29T01:20:10.914Z,32.80
2022-11-29T01:22:14.408Z,29.43
2022-11-29T01:24:17.319Z,26.50
2022-11-29T01:26:25.577Z,31.63
2022-11-29T01:28:29.129Z,28.40
2022-11-29T01:30:33.720Z,29.37
2022-11-29T01:32:36.878Z,28.47
2022-11-29T01:34:40.289Z,26.50
2022-11-29T01:36:43.250Z,27.50
2022-11-29T01:38:46.318Z,30.70
2022-11-29T01:40:59.220Z,31.00
2022-11-29T01:43:03.739Z,28.60
2022-11-29T01:45:22.379Z,30.07
2022-11-29T01:47:25.858Z,37.63
2022-11-29T01:49:31.154Z,26.90
2022-11-29T01:51:36.718Z,26.23
2022-11-29T01:53:39.954Z,28.90
2022-11-29T01:55:48.221Z,29.87
2022-11-29T01:57:51.392Z,28.27
2022-11-29T01:59:59.556Z,26.17
2022-11-29T02:02:07.606Z,25.80
2022-11-29T02:04:10.759Z,22.90
2022-11-29T02:06:14.556Z,15.13
2022-11-29T02:08:21.353Z,13.50
2022-11-29T02:10:34.694Z,16.17
2022-11-29T02:12:45.077Z,17.97
2022-11-29T02:15:09.950Z,22.03
2022-11-29T02:17:20.230Z,17.63
2022-11-29T02:19:53.336Z,19.60
2022-11-29T02:21:58.733Z,22.37
2022-11-29T02:24:29.671Z,26.97
2022-11-29T02:26:50.467Z,25.97
2022-11-29T02:29:17.055Z,28.90
2022-11-29T02:31:53.678Z,27.83
2022-11-29T02:34:21.318Z,21.47
2022-11-29T02:36:46.807Z,27.30
2022-11-29T02:39:17.183Z,29.33
2022-11-29T02:41:32.490Z,26.57
2022-11-29T02:44:16.575Z,30.97
2022-11-29T02:46:34.726Z,24.13
2022-11-29T02:48:52.429Z,27.50
2022-11-29T02:51:13.713Z,34.50
2022-11-29T02:53:21.452Z,28.67
2022-11-29T02:55:30.663Z,29.23
2022-11-29T02:57:40.254Z,31.67
2022-11-29T02:59:49.748Z,32.67
2022-11-29T03:01:59.285Z,30.17
2022-11-29T03:04:07.642Z,31.60
2022-11-29T03:06:21.178Z,31.17
2022-11-29T03:08:27.935Z,28.17
2022-11-29T03:10:36.162Z,27.00
2022-11-29T03:12:41.535Z,29.80
2022-11-29T03:14:53.740Z,29.00
2022-11-29T03:17:04.164Z,27.13
2022-11-29T03:19:19.613Z,26.30
2022-11-29T03:21:31.337Z,18.30
2022-11-29T03:23:38.191Z,22.43
2022-11-29T03:25:44.232Z,22.07
2022-11-29T03:27:50.047Z,19.80
2022-11-29T03:29:57.837Z,25.97
2022-11-29T03:32:03.595Z,23.00
2022-11-29T03:34:12.004Z,21.83
2022-11-29T03:36:23.579Z,25.40
2022-11-29T03:38:31.116Z,31.43
2022-11-29T03:40:41.605Z,35.10
2022-11-29T03:42:49.355Z,35.70
2022-11-29T03:44:57.443Z,36.07
2022-11-29T03:47:05.172Z,50.40
2022-11-29T03:49:12.847Z,46.27
2022-11-29T03:51:19.243Z,54.40
2022-11-29T03:53:28.489Z,47.37
2022-11-29T03:55:45.202Z,50.20
2022-11-29T03:57:56.156Z,63.73
2022-11-29T04:00:05.646Z,66.63
2022-11-29T04:02:55.556Z,61.93
2022-11-29T04:05:17.321Z,51.23
2022-11-29T04:07:36.237Z,52.90
2022-11-29T04:09:47.777Z,71.57
2022-11-29T04:12:22.638Z,55.00
2022-11-29T04:14:57.877Z,70.20
2022-11-29T04:17:33.469Z,61.30
2022-11-29T04:20:19.174Z,67.13
2022-11-29T04:22:33.668Z,72.90
2022-11-29T04:25:17.210Z,70.07
2022-11-29T04:27:31.736Z,66.40
2022-11-29T04:30:16.196Z,55.03
2022-11-29T04:32:47.242Z,67.37
2022-11-29T04:35:07.139Z,49.87
2022-11-29T04:37:36.635Z,58.33
2022-11-29T04:40:04.166Z,54.73
2022-11-29T04:42:30.233Z,50.27
2022-11-29T04:44:46.917Z,54.53
2022-11-29T04:47:12.242Z,55.60
2022-11-29T04:49:31.388Z,78.53
2022-11-29T04:51:49.128Z,73.93
2022-11-29T04:53:58.305Z,75.20
2022-11-29T04:56:17.116Z,63.97
2022-11-29T04:58:25.577Z,59.90
2022-11-29T05:00:31.386Z,59.40
2022-11-29T05:02:38.352Z,47.33
2022-11-29T05:04:50.117Z,42.50
2022-11-29T05:07:11.982Z,59.37
2022-11-29T05:09:24.546Z,44.20
2022-11-29T05:11:36.868Z,43.97
2022-11-29T05:13:51.104Z,45.37
2022-11-29T05:16:07.986Z,34.87
2022-11-29T05:18:19.770Z,47.93
2022-11-29T05:20:30.444Z,35.87
2022-11-29T05:22:36.724Z,38.23
2022-11-29T05:24:51.643Z,47.67
2022-11-29T05:27:01.001Z,53.83
2022-11-29T05:29:07.715Z,54.37
2022-11-29T05:31:22.836Z,51.13
2022-11-29T05:33:37.761Z,60.43
2022-11-29T05:35:52.890Z,56.20
2022-11-29T05:37:58.616Z,51.30
2022-11-29T05:40:25.015Z,47.20
2022-11-29T05:42:45.878Z,42.90
2022-11-29T05:44:54.068Z,48.67
2022-11-29T05:46:58.764Z,42.10
2022-11-29T05:49:11.923Z,44.07
2022-11-29T05:51:22.062Z,54.00
2022-11-29T05:53:29.582Z,49.07
2022-11-29T05:55:41.652Z,52.97
2022-11-29T05:57:49.177Z,59.40
2022-11-29T05:59:55.140Z,58.90
2022-11-29T06:02:05.412Z,52.27
2022-11-29T06:04:15.159Z,49.40
2022-11-29T06:06:24.309Z,57.77
2022-11-29T06:08:36.103Z,52.57
2022-11-29T06:10:41.030Z,53.53
2022-11-29T06:12:46.863Z,49.27
2022-11-29T06:15:13.664Z,55.50
2022-11-29T06:17:39.039Z,66.37
2022-11-29T06:20:04.225Z,66.50
2022-11-29T06:22:21.392Z,73.17
2022-11-29T06:24:39.097Z,82.77
2022-11-29T06:26:59.647Z,78.27
2022-11-29T06:29:22.725Z,81.97
2022-11-29T06:31:30.416Z,88.77
2022-11-29T06:33:39.726Z,87.00
2022-11-29T06:35:47.090Z,88.93
2022-11-29T06:37:52.393Z,93.10
2022-11-29T06:39:56.854Z,82.10
2022-11-29T06:41:59.841Z,88.43
2022-11-29T06:44:03.555Z,88.43
2022-11-29T06:46:12.008Z,80.57
2022-11-29T06:48:21.448Z,74.80
2022-11-29T06:50:34.976Z,82.90
2022-11-29T06:52:44.703Z,79.60
2022-11-29T06:54:56.585Z,82.90
2022-11-29T06:57:06.866Z,67.30
2022-11-29T06:59:15.397Z,69.27
2022-11-29T07:01:25.545Z,71.57
2022-11-29T07:03:44.296Z,61.20
2022-11-29T07:05:47.742Z,50.00
2022-11-29T07:07:51.638Z,63.40
2022-11-29T07:09:57.331Z,65.13
2022-11-29T07:12:01.003Z,49.90
2022-11-29T07:14:04.638Z,65.87
2022-11-29T07:16:15.453Z,66.53
2022-11-29T07:18:24.253Z,56.93
2022-11-29T07:20:37.639Z,68.60
2022-11-29T07:22:53.587Z,63.40
2022-11-29T07:25:01.113Z,74.00
2022-11-29T07:27:09.924Z,87.47
2022-11-29T07:29:22.243Z,80.53
2022-11-29T07:31:33.073Z,75.53
2022-11-29T07:33:45.017Z,72.47
2022-11-29T07:35:54.308Z,94.93
2022-11-29T07:38:04.063Z,81.50
2022-11-29T07:40:14.407Z,81.97
2022-11-29T07:42:20.697Z,85.23
2022-11-29T07:44:27.813Z,86.33
2022-11-29T07:46:32.124Z,81.97
2022-11-29T07:48:35.261Z,76.47
2022-11-29T07:50:38.425Z,79.97
2022-11-29T07:52:42.888Z,63.80
2022-11-29T07:54:46.350Z,73.27
2022-11-29T07:56:50.701Z,68.50
2022-11-29T07:58:54.389Z,81.63
2022-11-29T08:00:57.624Z,64.37
2022-11-29T08:03:00.564Z,69.10
2022-11-29T08:05:04.150Z,53.47
2022-11-29T08:07:07.036Z,49.87
2022-11-29T08:09:11.468Z,54.00
2022-11-29T08:11:15.861Z,56.03
2022-11-29T08:13:20.561Z,43.13
2022-11-29T08:15:25.138Z,49.33
2022-11-29T08:17:28.079Z,51.17
2022-11-29T08:19:31.116Z,50.57
2022-11-29T08:21:33.964Z,50.33
2022-11-29T08:23:36.813Z,47.40
2022-11-29T08:25:45.673Z,53.83
2022-11-29T08:27:48.788Z,47.20
2022-11-29T08:29:52.035Z,55.40
2022-11-29T08:31:55.416Z,49.23
2022-11-29T08:34:00.582Z,43.40
2022-11-29T08:36:06.741Z,58.13
2022-11-29T08:38:09.883Z,65.10
2022-11-29T08:40:13.695Z,54.07
2022-11-29T08:42:18.009Z,48.20
2022-11-29T08:44:21.039Z,41.13
2022-11-29T08:46:44.349Z,44.27
2022-11-29T08:48:47.231Z,57.10
2022-11-29T08:50:50.769Z,54.17
2022-11-29T08:53:11.031Z,52.00
2022-11-29T08:55:14.109Z,48.70
2022-11-29T08:57:39.313Z,53.23
2022-11-29T08:59:44.941Z,42.73
2022-11-29T09:01:47.905Z,49.33
2022-11-29T09:04:07.716Z,36.97
2022-11-29T09:06:13.021Z,48.77
2022-11-29T09:08:16.383Z,50.73
2022-11-29T09:10:19.369Z,43.93
2022-11-29T09:12:24.369Z,47.93
2022-11-29T09:14:27.442Z,47.43
2022-11-29T09:16:34.338Z,44.10
2022-11-29T09:18:38.428Z,51.17
2022-11-29T09:20:44.077Z,39.60
2022-11-29T09:22:47.031Z,53.57
2022-11-29T09:24:50.159Z,51.33
2022-11-29T09:26:53.501Z,41.40
2022-11-29T09:29:01.346Z,42.03
2022-11-29T09:31:07.756Z,43.33
2022-11-29T09:33:10.805Z,39.13
2022-11-29T09:35:13.818Z,52.40
2022-11-29T09:37:16.887Z,44.97
2022-11-29T09:39:20.293Z,51.20
2022-11-29T09:41:36.083Z,43.23
2022-11-29T09:43:48.579Z,41.03
2022-11-29T09:45:58.412Z,47.33
2022-11-29T09:48:27.857Z,35.27
2022-11-29T09:50:35.428Z,46.10
2022-11-29T09:52:45.014Z,56.57
2022-11-29T09:54:53.279Z,40.70
2022-11-29T09:56:57.388Z,39.33
2022-11-29T09:59:02.031Z,63.90
2022-11-29T10:01:10.117Z,34.70
2022-11-29T10:03:16.328Z,41.87
2022-11-29T10:05:23.233Z,43.93
2022-11-29T10:07:29.507Z,40.57
2022-11-29T10:09:34.939Z,32.17
2022-11-29T10:11:41.253Z,42.23
2022-11-29T10:13:47.014Z,36.63
2022-11-29T10:15:53.014Z,40.77
2022-11-29T10:18:02.518Z,45.93
2022-11-29T10:20:12.569Z,50.03
2022-11-29T10:22:19.523Z,46.07
2022-11-29T10:24:24.226Z,52.63
2022-11-29T10:26:31.996Z,52.67
2022-11-29T10:28:39.033Z,49.77
2022-11-29T10:30:42.982Z,54.20
2022-11-29T10:32:48.882Z,40.73
2022-11-29T10:34:53.451Z,39.23
2022-11-29T10:37:00.047Z,53.27
2022-11-29T10:39:11.421Z,41.90
2022-11-29T10:41:20.372Z,38.10
2022-11-29T10:43:23.735Z,35.13
2022-11-29T10:45:29.939Z,48.90
2022-11-29T10:47:33.122Z,40.07
2022-11-29T10:49:40.221Z,40.73
2022-11-29T10:51:45.164Z,51.43
2022-11-29T10:53:48.055Z,44.50
2022-11-29T10:55:54.724Z,40.63
2022-11-29T10:58:15.964Z,48.57
2022-11-29T11:00:19.525Z,41.60
2022-11-29T11:02:24.890Z,37.27
2022-11-29T11:04:30.517Z,41.70
2022-11-29T11:06:46.343Z,38.97
2022-11-29T11:08:51.766Z,34.30
2022-11-29T11:11:01.155Z,34.90
2022-11-29T11:13:07.040Z,38.87
2022-11-29T11:15:28.605Z,33.53
2022-11-29T11:17:32.986Z,45.63
2022-11-29T11:19:36.134Z,38.83
2022-11-29T11:21:39.786Z,42.83
2022-11-29T11:23:53.862Z,41.53
2022-11-29T11:25:58.490Z,33.17
2022-11-29T11:28:15.384Z,41.97
2022-11-29T11:30:21.818Z,49.30
2022-11-29T11:32:24.853Z,44.90
2022-11-29T11:34:34.115Z,42.13
2022-11-29T11:36:37.494Z,50.77
2022-11-29T11:38:42.018Z,52.57
2022-11-29T11:40:46.459Z,48.00
2022-11-29T11:42:49.413Z,64.13
2022-11-29T11:44:53.629Z,58.30
2022-11-29T11:46:57.038Z,53.60
2022-11-29T11:49:00.457Z,58.73
2022-11-29T11:51:03.292Z,50.67
2022-11-29T11:53:08.136Z,58.27
2022-11-29T11:55:26.624Z,60.47
2022-11-29T11:57:31.417Z,63.73
2022-11-29T11:59:34.411Z,68.00
2022-11-29T12:01:38.770Z,54.40
2022-11-29T12:03:54.246Z,73.10
2022-11-29T12:06:00.385Z,51.10
2022-11-29T12:08:08.506Z,61.23
2022-11-29T12:10:17.337Z,94.70
2022-11-29T12:12:24.031Z,52.40
2022-11-29T12:14:34.415Z,59.73
2022-11-29T12:16:39.759Z,61.17
2022-11-29T12:18:45.521Z,66.23
2022-11-29T12:20:53.962Z,49.27
2022-11-29T12:23:06.639Z,58.77
2022-11-29T12:25:16.561Z,45.00
2022-11-29T12:27:19.985Z,52.60
2022-11-29T12:29:33.299Z,58.83
2022-11-29T12:31:44.761Z,56.87
2022-11-29T12:33:56.242Z,57.30
2022-11-29T12:36:15.542Z,62.33
2022-11-29T12:38:29.976Z,70.50
2022-11-29T12:40:36.391Z,53.87
2022-11-29T12:42:49.133Z,59.30
2022-11-29T12:44:58.213Z,52.40
2022-11-29T12:49:40.796Z,44.07
2022-11-29T12:51:49.676Z,54.43
2022-11-29T12:54:05.583Z,47.63
2022-11-29T12:56:16.629Z,42.87
2022-11-29T12:58:24.810Z,49.83
2022-11-29T13:00:34.180Z,36.57
2022-11-29T13:02:57.991Z,49.13
2022-11-29T13:05:05.042Z,35.40
2022-11-29T13:07:12.820Z,52.63
2022-11-29T13:09:25.618Z,41.23
2022-11-29T13:11:30.835Z,44.33
2022-11-29T13:13:39.327Z,48.90
2022-11-29T13:15:49.807Z,49.93
2022-11-29T13:17:57.364Z,50.20
2022-11-29T13:20:05.973Z,51.43
2022-11-29T13:22:15.164Z,48.90
2022-11-29T13:24:24.547Z,42.30
2022-11-29T13:26:28.365Z,53.90
2022-11-29T13:28:33.763Z,50.77
2022-11-29T13:30:37.628Z,60.43
2022-11-29T13:32:51.421Z,56.87
2022-11-29T13:34:55.999Z,64.03
2022-11-29T13:37:06.272Z,61.97
2022-11-29T13:39:17.463Z,58.33
2022-11-29T13:41:27.033Z,63.47
2022-11-29T13:43:35.261Z,47.30
2022-11-29T13:45:42.486Z,56.67
2022-11-29T13:47:51.121Z,57.33
2022-11-29T13:49:57.637Z,63.00
2022-11-29T13:52:06.677Z,63.73
2022-11-29T13:54:28.345Z,64.30
2022-11-29T13:56:36.701Z,58.20
2022-11-29T13:58:40.822Z,56.10
2022-11-29T14:00:50.677Z,69.27
2022-11-29T14:02:55.619Z,64.03
2022-11-29T14:04:59.277Z,76.30
2022-11-29T14:07:08.580Z,64.97
2022-11-29T14:09:36.408Z,59.37
2022-11-29T14:11:47.660Z,68.70
2022-11-29T14:13:55.312Z,84.10
2022-11-29T14:16:00.484Z,79.43
2022-11-29T14:18:08.667Z,70.87
2022-11-29T14:20:51.220Z,79.23
2022-11-29T14:23:16.637Z,73.80
2022-11-29T14:25:50.539Z,62.53
2022-11-29T14:28:03.203Z,59.73
2022-11-29T14:30:33.789Z,53.73
2022-11-29T14:32:45.975Z,62.07
2022-11-29T14:34:55.184Z,59.03
2022-11-29T14:37:03.739Z,62.87
2022-11-29T14:39:22.000Z,55.27
2022-11-29T14:41:31.578Z,59.20
2022-11-29T14:43:36.401Z,68.80
2022-11-29T14:45:39.625Z,57.87
2022-11-29T14:47:49.654Z,73.50
2022-11-29T14:49:55.694Z,58.10
2022-11-29T14:52:10.856Z,73.80
2022-11-29T14:54:18.205Z,61.23
2022-11-29T14:56:43.426Z,59.33
2022-11-29T14:58:46.406Z,61.67
2022-11-29T15:00:56.864Z,67.13
2022-11-29T15:03:05.416Z,60.33
2022-11-29T15:05:17.830Z,58.80
2022-11-29T15:07:28.813Z,67.80
2022-11-29T15:09:34.967Z,65.37
2022-11-29T15:11:47.869Z,66.27
2022-11-29T15:13:57.283Z,51.83
2022-11-29T15:16:15.170Z,55.60
2022-11-29T15:18:28.006Z,67.80
2022-11-29T15:20:55.158Z,72.30
2022-11-29T15:23:01.129Z,74.73
2022-11-29T15:25:08.337Z,71.87
2022-11-29T15:27:14.035Z,69.87
2022-11-29T15:29:19.577Z,79.87
2022-11-29T15:31:23.086Z,68.17
2022-11-29T15:33:27.005Z,96.97
2022-11-29T15:35:30.094Z,65.73
2022-11-29T15:37:44.934Z,75.30
2022-11-29T15:39:48.179Z,73.37
2022-11-29T15:41:51.405Z,79.00
2022-11-29T15:43:57.183Z,64.83
2022-11-29T15:46:01.186Z,78.40
2022-11-29T15:48:15.163Z,71.37
2022-11-29T15:50:27.104Z,77.43
2022-11-29T15:52:33.820Z,81.67
2022-11-29T15:54:40.878Z,73.00
2022-11-29T15:56:46.869Z,68.07
2022-11-29T15:58:53.656Z,92.90
2022-11-29T16:00:57.164Z,89.83
2022-11-29T16:03:01.956Z,79.93
2022-11-29T16:05:09.689Z,91.73
2022-11-29T16:07:13.676Z,79.17
2022-11-29T16:09:20.373Z,74.83
2022-11-29T16:11:28.681Z,76.13
2022-11-29T16:13:38.472Z,72.53
2022-11-29T16:15:41.723Z,81.77
2022-11-29T16:17:44.605Z,69.27
2022-11-29T16:19:47.843Z,84.43
2022-11-29T16:22:03.207Z,72.73
2022-11-29T16:24:14.624Z,74.93
2022-11-29T16:26:20.083Z,79.00
2022-11-29T16:28:25.376Z,80.43
2022-11-29T16:30:31.248Z,85.67
2022-11-29T16:32:35.860Z,76.13
2022-11-29T16:34:42.980Z,72.43
2022-11-29T16:36:58.088Z,89.00
2022-11-29T16:39:06.678Z,71.80
2022-11-29T16:41:22.421Z,86.50
2022-11-29T16:43:48.549Z,88.13
2022-11-29T16:46:26.985Z,79.93
2022-11-29T16:48:31.395Z,79.23
2022-11-29T16:50:34.978Z,77.43
2022-11-29T16:52:37.951Z,69.40
2022-11-29T16:54:42.342Z,63.73
2022-11-29T16:56:45.305Z,64.80
2022-11-29T16:59:25.276Z,86.70
2022-11-29T17:01:18.615Z,82.90
2022-11-29T17:03:22.495Z,81.27
2022-11-29T17:05:25.519Z,76.27
2022-11-29T17:07:31.059Z,77.13
2022-11-29T17:09:34.417Z,68.53
2022-11-29T17:11:37.484Z,69.17
2022-11-29T17:13:40.686Z,64.47
2022-11-29T17:15:45.299Z,67.43
2022-11-29T17:17:48.338Z,86.50
2022-11-29T17:19:51.247Z,79.93
2022-11-29T17:21:54.156Z,65.97
2022-11-29T17:23:57.933Z,66.50
2022-11-29T17:26:01.855Z,74.67
2022-11-29T17:28:04.990Z,70.73
2022-11-29T17:30:11.292Z,71.97
2022-11-29T17:32:15.902Z,69.73
2022-11-29T17:34:19.368Z,70.67
2022-11-29T17:36:22.640Z,74.23
2022-11-29T17:38:25.642Z,64.90
2022-11-29T17:40:28.552Z,63.37
2022-11-29T17:42:32.522Z,67.03
2022-11-29T17:44:35.795Z,61.03
2022-11-29T17:46:39.096Z,50.40
2022-11-29T17:48:46.293Z,59.00
2022-11-29T17:50:49.216Z,66.53
2022-11-29T17:52:52.139Z,59.30
2022-11-29T17:54:55.331Z,64.50
2022-11-29T17:56:58.347Z,67.20
2022-11-29T17:59:04.864Z,62.83
2022-11-29T18:01:09.399Z,65.70
2022-11-29T18:03:12.744Z,57.20
2022-11-29T18:05:18.064Z,62.37
2022-11-29T18:07:20.983Z,67.87
2022-11-29T18:09:24.214Z,64.00
2022-11-29T18:11:28.694Z,57.53
2022-11-29T18:13:31.685Z,59.00
2022-11-29T18:15:34.626Z,63.10
2022-11-29T18:17:37.549Z,74.17
2022-11-29T18:19:40.458Z,73.33
2022-11-29T18:21:45.064Z,60.13
2022-11-29T18:23:48.154Z,60.57
2022-11-29T18:25:57.459Z,59.97
2022-11-29T18:28:00.519Z,59.30
2022-11-29T18:30:03.478Z,59.00
2022-11-29T18:32:06.418Z,61.67
2022-11-29T18:34:10.865Z,70.53
2022-11-29T18:36:15.575Z,53.70
2022-11-29T18:38:19.824Z,53.77
2022-11-29T18:40:23.665Z,61.73
2022-11-29T18:42:26.612Z,60.97
2022-11-29T18:44:30.324Z,57.13
2022-11-29T18:46:35.881Z,71.80
2022-11-29T18:48:39.062Z,64.50
2022-11-29T18:50:42.016Z,52.57
2022-11-29T18:52:44.943Z,70.43
2022-11-29T18:54:49.670Z,66.60
2022-11-29T18:56:52.802Z,54.73
2022-11-29T18:58:58.677Z,55.27
2022-11-29T19:01:06.255Z,70.40
2022-11-29T19:03:09.549Z,52.23
2022-11-29T19:05:12.439Z,61.70
2022-11-29T19:07:15.403Z,67.90
2022-11-29T19:09:20.898Z,66.87
2022-11-29T19:11:26.729Z,62.40
2022-11-29T19:13:29.801Z,68.43
2022-11-29T19:15:32.811Z,60.90
2022-11-29T19:17:40.167Z,59.93
2022-11-29T19:19:46.264Z,74.73
2022-11-29T19:21:49.411Z,63.43
2022-11-29T19:23:53.259Z,66.23
2022-11-29T19:25:56.274Z,60.90
2022-11-29T19:28:00.586Z,62.40
2022-11-29T19:30:03.584Z,60.03
2022-11-29T19:32:08.590Z,56.30
2022-11-29T19:34:12.136Z,60.87
2022-11-29T19:36:16.552Z,66.40
2022-11-29T19:38:19.514Z,68.27
2022-11-29T19:40:22.935Z,74.63
2022-11-29T19:42:26.070Z,54.77
2022-11-29T19:44:35.903Z,60.90
2022-11-29T19:46:51.575Z,58.60
2022-11-29T19:48:55.539Z,58.80
2022-11-29T19:51:01.000Z,51.10
2022-11-29T19:53:04.357Z,50.10
2022-11-29T19:55:08.009Z,52.83
2022-11-29T19:57:11.082Z,64.17
2022-11-29T19:59:14.057Z,62.67
2022-11-29T20:01:20.545Z,43.00
2022-11-29T20:03:23.590Z,48.33
2022-11-29T20:05:27.269Z,65.93
2022-11-29T20:07:31.224Z,65.53
2022-11-29T20:09:34.757Z,63.20
2022-11-29T20:11:37.758Z,57.40
2022-11-29T20:13:42.053Z,60.27
2022-11-29T20:15:45.074Z,55.37
2022-11-29T20:17:49.643Z,60.23
2022-11-29T20:19:53.583Z,85.20
2022-11-29T20:21:56.638Z,62.83
2022-11-29T20:24:01.223Z,61.27
2022-11-29T20:26:05.745Z,62.33
2022-11-29T20:28:08.899Z,58.17
2022-11-29T20:30:13.189Z,67.20
2022-11-29T20:32:16.855Z,72.63
2022-11-29T20:34:22.029Z,77.53
2022-11-29T20:36:37.617Z,85.30
2022-11-29T20:38:45.038Z,64.97
2022-11-29T20:41:02.525Z,58.13
2022-11-29T20:43:13.618Z,78.67
2022-11-29T20:45:18.117Z,78.30
2022-11-29T20:47:23.069Z,73.00
2022-11-29T20:49:28.955Z,65.03
2022-11-29T20:51:36.592Z,86.23
2022-11-29T20:53:40.779Z,66.30
2022-11-29T20:55:48.065Z,74.47
2022-11-29T20:57:51.974Z,77.57
2022-11-29T20:59:55.031Z,74.70
2022-11-29T21:02:01.386Z,64.70
2022-11-29T21:04:04.380Z,79.13
2022-11-29T21:06:09.495Z,69.93
2022-11-29T21:08:12.464Z,77.83
2022-11-29T21:10:16.731Z,73.73
2022-11-29T21:12:19.976Z,77.50
2022-11-29T21:14:23.725Z,74.07
2022-11-29T21:16:29.330Z,62.33
2022-11-29T21:18:33.829Z,69.17
2022-11-29T21:20:37.300Z,79.10
2022-11-29T21:22:49.488Z,67.57
2022-11-29T21:24:57.308Z,54.37
2022-11-29T21:27:01.190Z,58.50
2022-11-29T21:29:15.246Z,77.73
2022-11-29T21:31:19.118Z,64.10
2022-11-29T21:33:22.538Z,58.20
2022-11-29T21:35:26.201Z,62.13
2022-11-29T21:37:31.202Z,68.23
2022-11-29T21:39:35.844Z,60.90
2022-11-29T21:41:39.251Z,59.17
2022-11-29T21:44:05.562Z,63.30
2022-11-29T21:46:07.969Z,69.60
2022-11-29T21:48:31.113Z,56.33
2022-11-29T21:50:34.049Z,61.87
2022-11-29T21:52:37.103Z,64.30
2022-11-29T21:54:41.843Z,60.03
2022-11-29T21:56:44.989Z,63.40
2022-11-29T21:58:48.181Z,64.10
2022-11-29T22:00:53.325Z,61.20
2022-11-29T22:02:57.397Z,69.07
2022-11-29T22:05:00.350Z,70.37
2022-11-29T22:07:03.368Z,60.70
2022-11-29T22:09:07.644Z,72.53
2022-11-29T22:11:13.580Z,66.10
2022-11-29T22:13:16.597Z,61.67
2022-11-29T22:15:24.525Z,63.07
2022-11-29T22:17:29.080Z,60.83
2022-11-29T22:19:33.694Z,65.43
2022-11-29T22:21:36.798Z,58.10
2022-11-29T22:23:39.946Z,54.57
2022-11-29T22:25:42.767Z,52.43
2022-11-29T22:27:46.988Z,58.37
2022-11-29T22:29:50.154Z,72.63
2022-11-29T22:31:54.824Z,66.97
2022-11-29T22:33:59.512Z,57.40
2022-11-29T22:36:06.402Z,49.03
2022-11-29T22:38:09.454Z,63.03
2022-11-29T22:40:13.777Z,71.00
2022-11-29T22:42:16.815Z,66.30
2022-11-29T22:44:21.033Z,61.73
2022-11-29T22:46:25.330Z,64.70
2022-11-29T22:48:32.045Z,63.97
2022-11-29T22:50:38.492Z,67.07
2022-11-29T22:52:41.334Z,71.33
2022-11-29T22:54:46.927Z,57.37
2022-11-29T22:56:50.337Z,65.47
2022-11-29T22:58:53.427Z,65.40
2022-11-29T23:01:04.642Z,76.73
2022-11-29T23:03:07.648Z,75.67
2022-11-29T23:05:10.822Z,74.47
2022-11-29T23:07:13.934Z,70.63
2022-11-29T23:09:21.023Z,75.23
2022-11-29T23:11:26.363Z,84.23
2022-11-29T23:13:29.234Z,78.30
2022-11-29T23:15:32.087Z,81.43
2022-11-29T23:17:37.984Z,95.97
2022-11-29T23:19:41.496Z,82.50
2022-11-29T23:21:46.591Z,87.53
2022-11-29T23:23:55.784Z,73.80
2022-11-29T23:25:59.718Z,79.67
2022-11-29T23:28:02.947Z,90.53
2022-11-29T23:30:07.475Z,83.43
2022-11-29T23:32:10.393Z,78.20
2022-11-29T23:34:15.019Z,75.43
2022-11-29T23:36:19.130Z,89.40
2022-11-29T23:38:23.650Z,89.20
2022-11-29T23:40:26.562Z,103.27
2022-11-29T23:42:29.770Z,91.90
2022-11-29T23:44:32.711Z,84.27
2022-11-29T23:46:36.162Z,86.50
2022-11-29T23:48:39.119Z,101.93
2022-11-29T23:50:43.698Z,100.33
2022-11-29T23:52:46.530Z,102.23
2022-11-29T23:54:50.131Z,102.27
2022-11-29T23:56:53.029Z,100.90
2022-11-29T23:58:55.983Z,97.07
